Terminal Aerodrome Forecast
Issued by NWS Chicago, IL

Home | Current Version | Previous Version | Graphics & Text | Print | Product List | Glossary On
Versions: 1 2 3 4 5 6 7 8 9 10 11 12 13 14 15 16 17 18 19 20 21 22 23 24 25 26 27 28 29 30 31 32 33
778
FTUS43 KLOT 171909 AAA
TAFRFD
TAF AMD
KRFD 171909Z 1719/1818 17015G23KT P6SM SCT015 OVC025
     FM172300 18012G18KT 3SM -RA OVC007
     FM180300 19012KT 1 1/2SM -DZ BR OVC004
     FM180900 36010KT 2SM -DZ BR OVC004
     FM181400 36016G26KT 3SM -RA BR BKN006 OVC015 PROB30 1814/1817
      3SM -RASN=

USA.gov is the U.S. government's official web portal to all federal, state and local government web resources and services.